sensor_id;sensor_type;location;lat;lon;timestamp;P1;P2;P0
64229;PMS5003;50547;49.498;0.092;2023-04-08T00:01:23;13;13;
64229;PMS5003;50547;49.498;0.092;2023-04-08T00:03:53;11;11;
64229;PMS5003;50547;49.498;0.092;2023-04-08T00:06:22;13;13;
64229;PMS5003;50547;49.498;0.092;2023-04-08T00:08:51;13;13;
64229;PMS5003;50547;49.498;0.092;2023-04-08T00:11:20;13;13;
64229;PMS5003;50547;49.498;0.092;2023-04-08T00:13:49;13;13;
64229;PMS5003;50547;49.498;0.092;2023-04-08T00:16:18;14;14;
64229;PMS5003;50547;49.498;0.092;2023-04-08T00:18:47;14;14;
64229;PMS5003;50547;49.498;0.092;2023-04-08T00:21:16;13;13;
64229;PMS5003;50547;49.498;0.092;2023-04-08T00:23:46;14;14;
64229;PMS5003;50547;49.498;0.092;2023-04-08T00:26:15;14;14;
64229;PMS5003;50547;49.498;0.092;2023-04-08T00:28:44;14;14;
64229;PMS5003;50547;49.498;0.092;2023-04-08T00:31:13;14;14;
64229;PMS5003;50547;49.498;0.092;2023-04-08T00:33:42;13;13;
64229;PMS5003;50547;49.498;0.092;2023-04-08T00:36:11;14;14;
64229;PMS5003;50547;49.498;0.092;2023-04-08T00:38:40;14;14;
64229;PMS5003;50547;49.498;0.092;2023-04-08T00:41:10;13;13;
64229;PMS5003;50547;49.498;0.092;2023-04-08T00:43:39;13;13;
64229;PMS5003;50547;49.498;0.092;2023-04-08T00:46:08;14;14;
64229;PMS5003;50547;49.498;0.092;2023-04-08T00:48:37;14;14;
64229;PMS5003;50547;49.498;0.092;2023-04-08T00:51:06;14;14;
64229;PMS5003;50547;49.498;0.092;2023-04-08T00:53:36;14;14;
64229;PMS5003;50547;49.498;0.092;2023-04-08T00:56:05;15;14;
64229;PMS5003;50547;49.498;0.092;2023-04-08T00:58:34;15;14;
64229;PMS5003;50547;49.498;0.092;2023-04-08T01:01:04;17;15;
64229;PMS5003;50547;49.498;0.092;2023-04-08T01:03:41;15;14;
64229;PMS5003;50547;49.498;0.092;2023-04-08T01:06:17;18;16;
64229;PMS5003;50547;49.498;0.092;2023-04-08T01:08:53;14;14;
64229;PMS5003;50547;49.498;0.092;2023-04-08T01:11:22;14;14;
64229;PMS5003;50547;49.498;0.092;2023-04-08T01:13:52;14;14;
64229;PMS5003;50547;49.498;0.092;2023-04-08T01:16:23;14;14;
64229;PMS5003;50547;49.498;0.092;2023-04-08T01:18:53;14;14;
64229;PMS5003;50547;49.498;0.092;2023-04-08T01:21:23;14;14;
64229;PMS5003;50547;49.498;0.092;2023-04-08T01:23:57;15;14;
64229;PMS5003;50547;49.498;0.092;2023-04-08T01:26:29;14;14;
64229;PMS5003;50547;49.498;0.092;2023-04-08T01:28:59;14;14;
64229;PMS5003;50547;49.498;0.092;2023-04-08T01:31:30;14;14;
64229;PMS5003;50547;49.498;0.092;2023-04-08T01:34:00;14;14;
64229;PMS5003;50547;49.498;0.092;2023-04-08T01:36:31;15;14;
64229;PMS5003;50547;49.498;0.092;2023-04-08T01:39:02;14;14;
64229;PMS5003;50547;49.498;0.092;2023-04-08T01:41:33;14;14;
64229;PMS5003;50547;49.498;0.092;2023-04-08T01:44:05;14;14;
64229;PMS5003;50547;49.498;0.092;2023-04-08T01:46:34;14;14;
64229;PMS5003;50547;49.498;0.092;2023-04-08T01:49:04;14;14;
64229;PMS5003;50547;49.498;0.092;2023-04-08T01:51:35;14;14;
64229;PMS5003;50547;49.498;0.092;2023-04-08T01:54:05;14;14;
64229;PMS5003;50547;49.498;0.092;2023-04-08T01:56:35;14;14;
64229;PMS5003;50547;49.498;0.092;2023-04-08T01:59:09;14;14;
64229;PMS5003;50547;49.498;0.092;2023-04-08T02:01:41;14;14;
64229;PMS5003;50547;49.498;0.092;2023-04-08T02:04:12;14;14;
64229;PMS5003;50547;49.498;0.092;2023-04-08T02:06:41;14;14;
64229;PMS5003;50547;49.498;0.092;2023-04-08T02:09:11;14;14;
64229;PMS5003;50547;49.498;0.092;2023-04-08T02:11:40;14;14;
64229;PMS5003;50547;49.498;0.092;2023-04-08T02:14:09;14;14;
64229;PMS5003;50547;49.498;0.092;2023-04-08T02:16:39;14;14;
64229;PMS5003;50547;49.498;0.092;2023-04-08T02:19:13;13;13;
64229;PMS5003;50547;49.498;0.092;2023-04-08T02:21:47;14;14;
64229;PMS5003;50547;49.498;0.092;2023-04-08T02:24:27;13;13;
64229;PMS5003;50547;49.498;0.092;2023-04-08T02:26:57;13;13;
64229;PMS5003;50547;49.498;0.092;2023-04-08T02:29:29;13;13;
64229;PMS5003;50547;49.498;0.092;2023-04-08T02:32:00;13;13;
64229;PMS5003;50547;49.498;0.092;2023-04-08T02:34:31;13;13;
64229;PMS5003;50547;49.498;0.092;2023-04-08T02:37:03;13;13;
64229;PMS5003;50547;49.498;0.092;2023-04-08T02:39:32;13;13;
64229;PMS5003;50547;49.498;0.092;2023-04-08T02:42:02;13;13;
64229;PMS5003;50547;49.498;0.092;2023-04-08T02:44:32;13;13;
64229;PMS5003;50547;49.498;0.092;2023-04-08T02:47:01;13;13;
64229;PMS5003;50547;49.498;0.092;2023-04-08T02:49:30;13;13;
64229;PMS5003;50547;49.498;0.092;2023-04-08T02:51:59;13;13;
64229;PMS5003;50547;49.498;0.092;2023-04-08T02:54:28;13;13;
64229;PMS5003;50547;49.498;0.092;2023-04-08T02:56:57;13;13;
64229;PMS5003;50547;49.498;0.092;2023-04-08T02:59:26;13;13;
64229;PMS5003;50547;49.498;0.092;2023-04-08T03:01:56;13;13;
64229;PMS5003;50547;49.498;0.092;2023-04-08T03:04:25;13;13;
64229;PMS5003;50547;49.498;0.092;2023-04-08T03:06:54;13;13;
64229;PMS5003;50547;49.498;0.092;2023-04-08T03:09:23;11;11;
64229;PMS5003;50547;49.498;0.092;2023-04-08T03:11:52;13;13;
64229;PMS5003;50547;49.498;0.092;2023-04-08T03:14:21;13;13;
64229;PMS5003;50547;49.498;0.092;2023-04-08T03:16:50;13;13;
64229;PMS5003;50547;49.498;0.092;2023-04-08T03:19:20;13;13;
64229;PMS5003;50547;49.498;0.092;2023-04-08T03:21:49;13;13;
64229;PMS5003;50547;49.498;0.092;2023-04-08T03:24:18;13;13;
64229;PMS5003;50547;49.498;0.092;2023-04-08T03:26:47;13;13;
64229;PMS5003;50547;49.498;0.092;2023-04-08T03:29:16;13;13;
64229;PMS5003;50547;49.498;0.092;2023-04-08T03:31:45;13;13;
64229;PMS5003;50547;49.498;0.092;2023-04-08T03:34:14;13;13;
64229;PMS5003;50547;49.498;0.092;2023-04-08T03:36:43;11;11;
64229;PMS5003;50547;49.498;0.092;2023-04-08T03:39:13;13;13;
64229;PMS5003;50547;49.498;0.092;2023-04-08T03:41:42;13;13;
64229;PMS5003;50547;49.498;0.092;2023-04-08T03:44:11;13;13;
64229;PMS5003;50547;49.498;0.092;2023-04-08T03:46:40;11;11;
64229;PMS5003;50547;49.498;0.092;2023-04-08T03:49:09;11;11;
64229;PMS5003;50547;49.498;0.092;2023-04-08T03:51:38;11;11;
64229;PMS5003;50547;49.498;0.092;2023-04-08T03:54:07;13;13;
64229;PMS5003;50547;49.498;0.092;2023-04-08T03:56:36;11;11;
64229;PMS5003;50547;49.498;0.092;2023-04-08T03:59:05;11;11;
64229;PMS5003;50547;49.498;0.092;2023-04-08T04:01:34;11;11;
64229;PMS5003;50547;49.498;0.092;2023-04-08T04:04:03;11;11;
64229;PMS5003;50547;49.498;0.092;2023-04-08T04:06:32;11;11;
64229;PMS5003;50547;49.498;0.092;2023-04-08T04:09:02;11;11;
64229;PMS5003;50547;49.498;0.092;2023-04-08T04:11:32;11;11;
64229;PMS5003;50547;49.498;0.092;2023-04-08T04:14:02;11;11;
64229;PMS5003;50547;49.498;0.092;2023-04-08T04:16:31;11;11;
64229;PMS5003;50547;49.498;0.092;2023-04-08T04:19:00;11;11;
64229;PMS5003;50547;49.498;0.092;2023-04-08T04:21:30;13;13;
64229;PMS5003;50547;49.498;0.092;2023-04-08T04:23:59;11;11;
64229;PMS5003;50547;49.498;0.092;2023-04-08T04:26:27;11;11;
64229;PMS5003;50547;49.498;0.092;2023-04-08T04:28:57;11;11;
64229;PMS5003;50547;49.498;0.092;2023-04-08T04:31:26;11;11;
64229;PMS5003;50547;49.498;0.092;2023-04-08T04:33:55;11;11;
64229;PMS5003;50547;49.498;0.092;2023-04-08T04:36:24;11;11;
64229;PMS5003;50547;49.498;0.092;2023-04-08T04:38:53;11;11;
64229;PMS5003;50547;49.498;0.092;2023-04-08T04:41:22;11;11;
64229;PMS5003;50547;49.498;0.092;2023-04-08T04:43:51;11;11;
64229;PMS5003;50547;49.498;0.092;2023-04-08T04:46:20;11;11;
64229;PMS5003;50547;49.498;0.092;2023-04-08T04:48:50;11;11;
64229;PMS5003;50547;49.498;0.092;2023-04-08T04:51:19;11;11;
64229;PMS5003;50547;49.498;0.092;2023-04-08T04:53:48;11;11;
64229;PMS5003;50547;49.498;0.092;2023-04-08T04:56:17;11;11;
64229;PMS5003;50547;49.498;0.092;2023-04-08T04:58:46;11;11;
64229;PMS5003;50547;49.498;0.092;2023-04-08T05:01:16;11;11;
64229;PMS5003;50547;49.498;0.092;2023-04-08T05:03:45;11;11;
64229;PMS5003;50547;49.498;0.092;2023-04-08T05:06:14;11;11;
64229;PMS5003;50547;49.498;0.092;2023-04-08T05:08:43;11;11;
64229;PMS5003;50547;49.498;0.092;2023-04-08T05:11:12;11;11;
64229;PMS5003;50547;49.498;0.092;2023-04-08T05:13:41;11;11;
64229;PMS5003;50547;49.498;0.092;2023-04-08T05:16:10;11;11;
64229;PMS5003;50547;49.498;0.092;2023-04-08T05:18:39;11;11;
64229;PMS5003;50547;49.498;0.092;2023-04-08T05:21:08;11;11;
64229;PMS5003;50547;49.498;0.092;2023-04-08T05:23:38;13;13;
64229;PMS5003;50547;49.498;0.092;2023-04-08T05:26:07;11;11;
64229;PMS5003;50547;49.498;0.092;2023-04-08T05:28:36;11;11;
64229;PMS5003;50547;49.498;0.092;2023-04-08T05:31:05;11;11;
64229;PMS5003;50547;49.498;0.092;2023-04-08T05:33:34;11;11;
64229;PMS5003;50547;49.498;0.092;2023-04-08T05:36:04;11;11;
64229;PMS5003;50547;49.498;0.092;2023-04-08T05:38:33;11;11;
64229;PMS5003;50547;49.498;0.092;2023-04-08T05:41:02;11;11;
64229;PMS5003;50547;49.498;0.092;2023-04-08T05:43:31;13;13;
64229;PMS5003;50547;49.498;0.092;2023-04-08T05:46:04;11;11;
64229;PMS5003;50547;49.498;0.092;2023-04-08T05:48:34;11;11;
64229;PMS5003;50547;49.498;0.092;2023-04-08T05:51:04;11;11;
64229;PMS5003;50547;49.498;0.092;2023-04-08T05:53:33;13;13;
64229;PMS5003;50547;49.498;0.092;2023-04-08T05:56:02;11;11;
64229;PMS5003;50547;49.498;0.092;2023-04-08T05:58:31;11;11;
64229;PMS5003;50547;49.498;0.092;2023-04-08T06:01:00;11;11;
64229;PMS5003;50547;49.498;0.092;2023-04-08T06:03:29;11;11;
64229;PMS5003;50547;49.498;0.092;2023-04-08T06:05:58;11;11;
64229;PMS5003;50547;49.498;0.092;2023-04-08T06:08:28;11;11;
64229;PMS5003;50547;49.498;0.092;2023-04-08T06:10:57;11;11;
64229;PMS5003;50547;49.498;0.092;2023-04-08T06:13:23;11;11;
64229;PMS5003;50547;49.498;0.092;2023-04-08T06:15:52;11;11;
64229;PMS5003;50547;49.498;0.092;2023-04-08T06:18:21;11;11;
64229;PMS5003;50547;49.498;0.092;2023-04-08T06:20:50;11;11;
64229;PMS5003;50547;49.498;0.092;2023-04-08T06:23:19;11;11;
64229;PMS5003;50547;49.498;0.092;2023-04-08T06:25:49;10;10;
64229;PMS5003;50547;49.498;0.092;2023-04-08T06:28:15;10;10;
64229;PMS5003;50547;49.498;0.092;2023-04-08T06:30:44;10;10;
64229;PMS5003;50547;49.498;0.092;2023-04-08T06:33:13;10;10;
64229;PMS5003;50547;49.498;0.092;2023-04-08T06:35:39;10;10;
64229;PMS5003;50547;49.498;0.092;2023-04-08T06:38:08;10;10;
64229;PMS5003;50547;49.498;0.092;2023-04-08T06:40:37;10;10;
64229;PMS5003;50547;49.498;0.092;2023-04-08T06:43:07;10;10;
64229;PMS5003;50547;49.498;0.092;2023-04-08T06:45:36;10;10;
64229;PMS5003;50547;49.498;0.092;2023-04-08T06:48:05;10;10;
64229;PMS5003;50547;49.498;0.092;2023-04-08T06:50:31;11;11;
64229;PMS5003;50547;49.498;0.092;2023-04-08T06:53:00;10;10;
64229;PMS5003;50547;49.498;0.092;2023-04-08T06:55:29;11;11;
64229;PMS5003;50547;49.498;0.092;2023-04-08T06:57:54;11;11;
64229;PMS5003;50547;49.498;0.092;2023-04-08T07:00:24;11;11;
64229;PMS5003;50547;49.498;0.092;2023-04-08T07:02:53;11;11;
64229;PMS5003;50547;49.498;0.092;2023-04-08T07:05:19;11;11;
64229;PMS5003;50547;49.498;0.092;2023-04-08T07:07:48;11;11;
64229;PMS5003;50547;49.498;0.092;2023-04-08T07:10:17;11;11;
64229;PMS5003;50547;49.498;0.092;2023-04-08T07:12:46;11;11;
64229;PMS5003;50547;49.498;0.092;2023-04-08T07:15:15;11;11;
64229;PMS5003;50547;49.498;0.092;2023-04-08T07:17:45;13;13;
64229;PMS5003;50547;49.498;0.092;2023-04-08T07:20:11;13;13;
64229;PMS5003;50547;49.498;0.092;2023-04-08T07:22:41;13;13;
64229;PMS5003;50547;49.498;0.092;2023-04-08T07:25:07;13;13;
64229;PMS5003;50547;49.498;0.092;2023-04-08T07:27:36;13;13;
64229;PMS5003;50547;49.498;0.092;2023-04-08T07:30:06;13;13;
64229;PMS5003;50547;49.498;0.092;2023-04-08T07:32:36;13;13;
64229;PMS5003;50547;49.498;0.092;2023-04-08T07:35:05;14;14;
64229;PMS5003;50547;49.498;0.092;2023-04-08T07:37:35;14;14;
64229;PMS5003;50547;49.498;0.092;2023-04-08T07:40:04;14;14;
64229;PMS5003;50547;49.498;0.092;2023-04-08T07:42:35;14;14;
64229;PMS5003;50547;49.498;0.092;2023-04-08T07:45:04;14;14;
64229;PMS5003;50547;49.498;0.092;2023-04-08T07:47:31;15;14;
64229;PMS5003;50547;49.498;0.092;2023-04-08T07:50:00;14;14;
64229;PMS5003;50547;49.498;0.092;2023-04-08T07:52:29;17;15;
64229;PMS5003;50547;49.498;0.092;2023-04-08T07:54:59;17;15;
64229;PMS5003;50547;49.498;0.092;2023-04-08T07:57:42;18;16;
64229;PMS5003;50547;49.498;0.092;2023-04-08T08:00:08;18;16;
64229;PMS5003;50547;49.498;0.092;2023-04-08T08:02:38;17;15;
64229;PMS5003;50547;49.498;0.092;2023-04-08T08:05:08;18;16;
64229;PMS5003;50547;49.498;0.092;2023-04-08T08:07:37;14;14;
64229;PMS5003;50547;49.498;0.092;2023-04-08T08:10:11;14;14;
64229;PMS5003;50547;49.498;0.092;2023-04-08T08:12:40;15;14;
64229;PMS5003;50547;49.498;0.092;2023-04-08T08:15:09;14;14;
64229;PMS5003;50547;49.498;0.092;2023-04-08T08:17:39;17;15;
64229;PMS5003;50547;49.498;0.092;2023-04-08T08:20:08;15;14;
64229;PMS5003;50547;49.498;0.092;2023-04-08T08:22:38;17;15;
64229;PMS5003;50547;49.498;0.092;2023-04-08T08:25:07;14;14;
64229;PMS5003;50547;49.498;0.092;2023-04-08T08:27:36;17;15;
64229;PMS5003;50547;49.498;0.092;2023-04-08T08:30:06;13;13;
64229;PMS5003;50547;49.498;0.092;2023-04-08T08:32:36;13;13;
64229;PMS5003;50547;49.498;0.092;2023-04-08T08:35:05;13;13;
64229;PMS5003;50547;49.498;0.092;2023-04-08T08:37:35;11;11;
64229;PMS5003;50547;49.498;0.092;2023-04-08T08:40:38;11;11;
64229;PMS5003;50547;49.498;0.092;2023-04-08T08:43:07;11;11;
64229;PMS5003;50547;49.498;0.092;2023-04-08T08:45:38;11;11;
64229;PMS5003;50547;49.498;0.092;2023-04-08T08:48:07;11;11;
64229;PMS5003;50547;49.498;0.092;2023-04-08T08:50:37;10;10;
64229;PMS5003;50547;49.498;0.092;2023-04-08T08:53:06;10;10;
64229;PMS5003;50547;49.498;0.092;2023-04-08T08:55:35;8;8;
64229;PMS5003;50547;49.498;0.092;2023-04-08T08:58:05;8;8;
64229;PMS5003;50547;49.498;0.092;2023-04-08T09:00:35;9;9;
64229;PMS5003;50547;49.498;0.092;2023-04-08T09:03:14;8;8;
64229;PMS5003;50547;49.498;0.092;2023-04-08T09:05:48;8;8;
64229;PMS5003;50547;49.498;0.092;2023-04-08T09:08:22;7;7;
64229;PMS5003;50547;49.498;0.092;2023-04-08T09:10:50;8;8;
64229;PMS5003;50547;49.498;0.092;2023-04-08T09:13:20;7;7;
64229;PMS5003;50547;49.498;0.092;2023-04-08T09:16:06;7;7;
64229;PMS5003;50547;49.498;0.092;2023-04-08T09:18:36;8;8;
64229;PMS5003;50547;49.498;0.092;2023-04-08T09:21:06;8;8;
64229;PMS5003;50547;49.498;0.092;2023-04-08T09:23:37;7;7;
64229;PMS5003;50547;49.498;0.092;2023-04-08T09:26:07;7;7;
64229;PMS5003;50547;49.498;0.092;2023-04-08T09:28:38;8;8;
64229;PMS5003;50547;49.498;0.092;2023-04-08T09:31:24;8;8;
64229;PMS5003;50547;49.498;0.092;2023-04-08T09:33:55;8;8;
64229;PMS5003;50547;49.498;0.092;2023-04-08T09:36:26;7;7;
64229;PMS5003;50547;49.498;0.092;2023-04-08T09:38:55;7;7;
64229;PMS5003;50547;49.498;0.092;2023-04-08T09:41:24;7;7;
64229;PMS5003;50547;49.498;0.092;2023-04-08T09:43:56;8;8;
64229;PMS5003;50547;49.498;0.092;2023-04-08T09:46:28;7;7;
64229;PMS5003;50547;49.498;0.092;2023-04-08T09:49:03;8;8;
64229;PMS5003;50547;49.498;0.092;2023-04-08T09:51:35;7;7;
64229;PMS5003;50547;49.498;0.092;2023-04-08T09:54:11;8;8;
64229;PMS5003;50547;49.498;0.092;2023-04-08T09:56:43;7;7;
64229;PMS5003;50547;49.498;0.092;2023-04-08T09:59:19;7;7;
64229;PMS5003;50547;49.498;0.092;2023-04-08T10:01:53;8;8;
64229;PMS5003;50547;49.498;0.092;2023-04-08T10:04:23;7;7;
64229;PMS5003;50547;49.498;0.092;2023-04-08T10:06:57;7;7;
64229;PMS5003;50547;49.498;0.092;2023-04-08T10:09:32;9;9;
64229;PMS5003;50547;49.498;0.092;2023-04-08T10:12:02;9;9;
64229;PMS5003;50547;49.498;0.092;2023-04-08T10:14:32;8;8;
64229;PMS5003;50547;49.498;0.092;2023-04-08T10:17:34;9;9;
64229;PMS5003;50547;49.498;0.092;2023-04-08T10:20:03;10;10;
64229;PMS5003;50547;49.498;0.092;2023-04-08T10:23:08;10;10;
64229;PMS5003;50547;49.498;0.092;2023-04-08T10:25:39;10;10;
64229;PMS5003;50547;49.498;0.092;2023-04-08T10:28:25;9;9;
64229;PMS5003;50547;49.498;0.092;2023-04-08T10:30:54;9;9;
64229;PMS5003;50547;49.498;0.092;2023-04-08T10:33:30;9;9;
64229;PMS5003;50547;49.498;0.092;2023-04-08T10:36:07;10;10;
64229;PMS5003;50547;49.498;0.092;2023-04-08T10:38:37;10;10;
64229;PMS5003;50547;49.498;0.092;2023-04-08T10:41:06;10;10;
64229;PMS5003;50547;49.498;0.092;2023-04-08T10:43:44;10;10;
64229;PMS5003;50547;49.498;0.092;2023-04-08T10:46:26;10;10;
64229;PMS5003;50547;49.498;0.092;2023-04-08T10:48:58;13;13;
64229;PMS5003;50547;49.498;0.092;2023-04-08T10:51:29;10;10;
64229;PMS5003;50547;49.498;0.092;2023-04-08T10:54:04;18;16;
64229;PMS5003;50547;49.498;0.092;2023-04-08T10:56:34;10;10;
64229;PMS5003;50547;49.498;0.092;2023-04-08T10:59:03;10;10;
64229;PMS5003;50547;49.498;0.092;2023-04-08T11:01:40;10;10;
64229;PMS5003;50547;49.498;0.092;2023-04-08T11:04:10;10;10;
64229;PMS5003;50547;49.498;0.092;2023-04-08T11:06:41;10;10;
64229;PMS5003;50547;49.498;0.092;2023-04-08T11:09:11;10;10;
64229;PMS5003;50547;49.498;0.092;2023-04-08T11:11:42;10;10;
64229;PMS5003;50547;49.498;0.092;2023-04-08T11:14:13;10;10;
64229;PMS5003;50547;49.498;0.092;2023-04-08T11:16:42;10;10;
64229;PMS5003;50547;49.498;0.092;2023-04-08T11:19:12;10;10;
64229;PMS5003;50547;49.498;0.092;2023-04-08T11:21:42;10;10;
64229;PMS5003;50547;49.498;0.092;2023-04-08T11:24:11;10;10;
64229;PMS5003;50547;49.498;0.092;2023-04-08T11:26:41;10;10;
64229;PMS5003;50547;49.498;0.092;2023-04-08T11:29:11;10;10;
64229;PMS5003;50547;49.498;0.092;2023-04-08T11:31:41;10;10;
64229;PMS5003;50547;49.498;0.092;2023-04-08T11:34:11;10;10;
64229;PMS5003;50547;49.498;0.092;2023-04-08T11:36:51;10;10;
64229;PMS5003;50547;49.498;0.092;2023-04-08T11:39:21;10;10;
64229;PMS5003;50547;49.498;0.092;2023-04-08T11:41:51;10;10;
64229;PMS5003;50547;49.498;0.092;2023-04-08T11:44:28;10;10;
64229;PMS5003;50547;49.498;0.092;2023-04-08T11:46:58;10;10;
64229;PMS5003;50547;49.498;0.092;2023-04-08T11:49:42;10;10;
64229;PMS5003;50547;49.498;0.092;2023-04-08T11:52:12;10;10;
64229;PMS5003;50547;49.498;0.092;2023-04-08T11:54:42;10;10;
64229;PMS5003;50547;49.498;0.092;2023-04-08T11:57:11;9;9;
64229;PMS5003;50547;49.498;0.092;2023-04-08T11:59:41;10;10;
64229;PMS5003;50547;49.498;0.092;2023-04-08T12:02:10;10;10;
64229;PMS5003;50547;49.498;0.092;2023-04-08T12:04:39;10;10;
64229;PMS5003;50547;49.498;0.092;2023-04-08T12:07:09;10;10;
64229;PMS5003;50547;49.498;0.092;2023-04-08T12:09:35;10;10;
64229;PMS5003;50547;49.498;0.092;2023-04-08T12:12:01;10;10;
64229;PMS5003;50547;49.498;0.092;2023-04-08T12:14:30;10;10;
64229;PMS5003;50547;49.498;0.092;2023-04-08T12:16:59;10;10;
64229;PMS5003;50547;49.498;0.092;2023-04-08T12:19:29;10;10;
64229;PMS5003;50547;49.498;0.092;2023-04-08T12:21:58;10;10;
64229;PMS5003;50547;49.498;0.092;2023-04-08T12:24:27;10;10;
64229;PMS5003;50547;49.498;0.092;2023-04-08T12:26:56;10;10;
64229;PMS5003;50547;49.498;0.092;2023-04-08T12:29:25;10;10;
64229;PMS5003;50547;49.498;0.092;2023-04-08T12:31:54;10;10;
64229;PMS5003;50547;49.498;0.092;2023-04-08T12:34:24;10;10;
64229;PMS5003;50547;49.498;0.092;2023-04-08T12:36:53;11;11;
64229;PMS5003;50547;49.498;0.092;2023-04-08T12:39:22;11;11;
64229;PMS5003;50547;49.498;0.092;2023-04-08T12:45:07;10;10;
64229;PMS5003;50547;49.498;0.092;2023-04-08T12:47:36;10;10;
64229;PMS5003;50547;49.498;0.092;2023-04-08T12:50:06;10;10;
64229;PMS5003;50547;49.498;0.092;2023-04-08T12:52:36;10;10;
64229;PMS5003;50547;49.498;0.092;2023-04-08T12:55:02;10;10;
64229;PMS5003;50547;49.498;0.092;2023-04-08T12:57:31;9;9;
64229;PMS5003;50547;49.498;0.092;2023-04-08T13:00:00;10;10;
64229;PMS5003;50547;49.498;0.092;2023-04-08T13:02:29;10;10;
64229;PMS5003;50547;49.498;0.092;2023-04-08T13:04:59;10;10;
64229;PMS5003;50547;49.498;0.092;2023-04-08T13:07:28;10;10;
64229;PMS5003;50547;49.498;0.092;2023-04-08T13:09:57;10;10;
64229;PMS5003;50547;49.498;0.092;2023-04-08T13:12:27;10;10;
64229;PMS5003;50547;49.498;0.092;2023-04-08T13:14:56;10;10;
64229;PMS5003;50547;49.498;0.092;2023-04-08T13:17:25;10;10;
64229;PMS5003;50547;49.498;0.092;2023-04-08T13:19:54;10;10;
64229;PMS5003;50547;49.498;0.092;2023-04-08T13:22:24;10;10;
64229;PMS5003;50547;49.498;0.092;2023-04-08T13:24:53;10;10;
64229;PMS5003;50547;49.498;0.092;2023-04-08T13:27:22;10;10;
64229;PMS5003;50547;49.498;0.092;2023-04-08T13:29:51;10;10;
64229;PMS5003;50547;49.498;0.092;2023-04-08T13:32:22;10;10;
64229;PMS5003;50547;49.498;0.092;2023-04-08T13:34:51;10;10;
64229;PMS5003;50547;49.498;0.092;2023-04-08T13:37:21;10;10;
64229;PMS5003;50547;49.498;0.092;2023-04-08T13:39:55;11;11;
64229;PMS5003;50547;49.498;0.092;2023-04-08T13:42:21;11;11;
64229;PMS5003;50547;49.498;0.092;2023-04-08T13:44:50;10;10;
64229;PMS5003;50547;49.498;0.092;2023-04-08T13:47:19;10;10;
64229;PMS5003;50547;49.498;0.092;2023-04-08T13:49:48;10;10;
64229;PMS5003;50547;49.498;0.092;2023-04-08T13:52:17;11;11;
64229;PMS5003;50547;49.498;0.092;2023-04-08T13:54:47;11;11;
64229;PMS5003;50547;49.498;0.092;2023-04-08T13:57:16;11;11;
64229;PMS5003;50547;49.498;0.092;2023-04-08T13:59:45;11;11;
64229;PMS5003;50547;49.498;0.092;2023-04-08T14:02:14;11;11;
64229;PMS5003;50547;49.498;0.092;2023-04-08T14:04:43;13;13;
64229;PMS5003;50547;49.498;0.092;2023-04-08T14:07:12;11;11;
64229;PMS5003;50547;49.498;0.092;2023-04-08T14:09:42;13;13;
64229;PMS5003;50547;49.498;0.092;2023-04-08T14:12:13;13;13;
64229;PMS5003;50547;49.498;0.092;2023-04-08T14:14:48;11;11;
64229;PMS5003;50547;49.498;0.092;2023-04-08T14:17:18;11;11;
64229;PMS5003;50547;49.498;0.092;2023-04-08T14:19:47;11;11;
64229;PMS5003;50547;49.498;0.092;2023-04-08T14:22:17;11;11;
64229;PMS5003;50547;49.498;0.092;2023-04-08T14:24:46;11;11;
64229;PMS5003;50547;49.498;0.092;2023-04-08T14:27:15;11;11;
64229;PMS5003;50547;49.498;0.092;2023-04-08T14:29:44;11;11;
64229;PMS5003;50547;49.498;0.092;2023-04-08T14:32:13;11;11;
64229;PMS5003;50547;49.498;0.092;2023-04-08T14:34:42;11;11;
64229;PMS5003;50547;49.498;0.092;2023-04-08T14:37:08;11;11;
64229;PMS5003;50547;49.498;0.092;2023-04-08T14:39:37;11;11;
64229;PMS5003;50547;49.498;0.092;2023-04-08T14:42:06;11;11;
64229;PMS5003;50547;49.498;0.092;2023-04-08T14:44:35;13;13;
64229;PMS5003;50547;49.498;0.092;2023-04-08T14:47:04;11;11;
64229;PMS5003;50547;49.498;0.092;2023-04-08T14:49:34;11;11;
64229;PMS5003;50547;49.498;0.092;2023-04-08T14:52:00;11;11;
64229;PMS5003;50547;49.498;0.092;2023-04-08T14:54:29;11;11;
64229;PMS5003;50547;49.498;0.092;2023-04-08T14:56:58;11;11;
64229;PMS5003;50547;49.498;0.092;2023-04-08T14:59:26;10;10;
64229;PMS5003;50547;49.498;0.092;2023-04-08T15:01:55;10;10;
64229;PMS5003;50547;49.498;0.092;2023-04-08T15:04:24;10;10;
64229;PMS5003;50547;49.498;0.092;2023-04-08T15:06:53;11;11;
64229;PMS5003;50547;49.498;0.092;2023-04-08T15:09:22;11;11;
64229;PMS5003;50547;49.498;0.092;2023-04-08T15:11:51;11;11;
64229;PMS5003;50547;49.498;0.092;2023-04-08T15:14:20;11;11;
64229;PMS5003;50547;49.498;0.092;2023-04-08T15:16:49;11;11;
64229;PMS5003;50547;49.498;0.092;2023-04-08T15:19:18;11;11;
64229;PMS5003;50547;49.498;0.092;2023-04-08T15:21:48;11;11;
64229;PMS5003;50547;49.498;0.092;2023-04-08T15:24:17;11;11;
64229;PMS5003;50547;49.498;0.092;2023-04-08T15:26:46;13;13;
64229;PMS5003;50547;49.498;0.092;2023-04-08T15:29:15;13;13;
64229;PMS5003;50547;49.498;0.092;2023-04-08T15:31:44;17;15;
64229;PMS5003;50547;49.498;0.092;2023-04-08T15:34:13;15;14;
64229;PMS5003;50547;49.498;0.092;2023-04-08T15:36:42;13;13;
64229;PMS5003;50547;49.498;0.092;2023-04-08T15:39:11;14;14;
64229;PMS5003;50547;49.498;0.092;2023-04-08T15:41:40;18;16;
64229;PMS5003;50547;49.498;0.092;2023-04-08T15:44:09;18;16;
64229;PMS5003;50547;49.498;0.092;2023-04-08T15:46:38;18;16;
64229;PMS5003;50547;49.498;0.092;2023-04-08T15:49:07;19;17;
64229;PMS5003;50547;49.498;0.092;2023-04-08T15:51:37;20;17;
64229;PMS5003;50547;49.498;0.092;2023-04-08T15:54:06;20;17;
64229;PMS5003;50547;49.498;0.092;2023-04-08T15:56:35;21;18;
64229;PMS5003;50547;49.498;0.092;2023-04-08T15:59:04;22;19;
64229;PMS5003;50547;49.498;0.092;2023-04-08T16:01:33;20;17;
64229;PMS5003;50547;49.498;0.092;2023-04-08T16:04:02;21;18;
64229;PMS5003;50547;49.498;0.092;2023-04-08T16:06:31;20;17;
64229;PMS5003;50547;49.498;0.092;2023-04-08T16:09:00;22;19;
64229;PMS5003;50547;49.498;0.092;2023-04-08T16:11:29;22;19;
64229;PMS5003;50547;49.498;0.092;2023-04-08T16:13:58;21;18;
64229;PMS5003;50547;49.498;0.092;2023-04-08T16:16:27;22;19;
64229;PMS5003;50547;49.498;0.092;2023-04-08T16:18:57;21;18;
64229;PMS5003;50547;49.498;0.092;2023-04-08T16:21:26;20;17;
64229;PMS5003;50547;49.498;0.092;2023-04-08T16:23:55;21;18;
64229;PMS5003;50547;49.498;0.092;2023-04-08T16:26:24;21;18;
64229;PMS5003;50547;49.498;0.092;2023-04-08T16:28:53;19;17;
64229;PMS5003;50547;49.498;0.092;2023-04-08T16:31:22;21;18;
64229;PMS5003;50547;49.498;0.092;2023-04-08T16:33:51;20;17;
64229;PMS5003;50547;49.498;0.092;2023-04-08T16:36:20;20;17;
64229;PMS5003;50547;49.498;0.092;2023-04-08T16:38:49;20;17;
64229;PMS5003;50547;49.498;0.092;2023-04-08T16:41:18;20;17;
64229;PMS5003;50547;49.498;0.092;2023-04-08T16:43:47;20;17;